Terminal Aerodrome Forecast
Issued by NWS Cleveland, OH

Home | Current Version | Previous Version | Graphics & Text | Print | Product List | Glossary On
Versions: 1 2 3 4 5 6 7 8 9 10 11 12 13 14 15 16 17 18 19 20 21 22
393
FTUS41 KCLE 170903 AAA
TAFTOL
TAF AMD
KTOL 170903Z 1709/1806 14006KT 1SM -SHRA BR BKN002
      TEMPO 1709/1712 1/2SM FG VV002
     FM171200 22008KT 4SM -SHRA BR OVC003
     FM171700 25012G20KT 5SM BR BKN008 OVC012=

USA.gov is the U.S. government's official web portal to all federal, state and local government web resources and services.